Time;durP1;ratioP1;P1;durP2;ratioP2;P2;SDS_P1;SDS_P2;PMS_P1;PMS_P2;Temp;Humidity;BMP_temperature;BMP_pressure;BME280_temperature;BME280_humidity;BME280_pressure;Samples;Min_cycle;Max_cycle;Signal;HPM_P1;HPM_P2
2021/03/15 00:00:42;;;;;;;4.37;3.67;;;10.20;58.80;;;;;;5065742;28;21034;-43
2021/03/15 00:03:08;;;;;;;7.60;5.43;;;10.30;59.00;;;;;;5066719;28;20897;-43
2021/03/15 00:05:34;;;;;;;4.80;4.40;;;10.30;59.10;;;;;;5065410;28;20474;-43
2021/03/15 00:08:00;;;;;;;4.53;4.13;;;10.30;59.10;;;;;;5065835;28;20889;-43
2021/03/15 00:10:25;;;;;;;6.10;3.47;;;10.30;59.20;;;;;;5069429;28;20188;-43
2021/03/15 00:12:52;;;;;;;6.00;3.27;;;10.30;59.70;;;;;;5065148;28;20329;-43
2021/03/15 00:15:20;;;;;;;4.17;3.57;;;10.30;59.00;;;;;;5066617;28;20196;-43
2021/03/15 00:17:47;;;;;;;7.00;3.80;;;10.40;59.10;;;;;;5066219;28;20444;-43
2021/03/15 00:20:15;;;;;;;5.43;3.53;;;10.30;59.50;;;;;;5064460;28;20474;-43
2021/03/15 00:22:41;;;;;;;4.40;3.87;;;10.40;59.60;;;;;;5069243;28;20439;-43
2021/03/15 00:25:07;;;;;;;4.63;4.10;;;10.40;59.50;;;;;;5064212;28;20457;-43
2021/03/15 00:27:33;;;;;;;5.30;3.47;;;10.30;59.50;;;;;;5064969;28;20520;-43
2021/03/15 00:29:59;;;;;;;5.90;3.47;;;10.40;59.50;;;;;;5065687;28;20491;-43
2021/03/15 00:32:25;;;;;;;5.97;3.60;;;10.40;59.40;;;;;;5069264;28;20502;-43
2021/03/15 00:34:51;;;;;;;5.53;3.47;;;10.40;59.30;;;;;;5066237;28;20655;-43
2021/03/15 00:37:16;;;;;;;6.53;3.90;;;10.40;59.30;;;;;;5065506;28;20580;-43
2021/03/15 00:39:42;;;;;;;3.97;3.20;;;10.40;59.40;;;;;;5066810;28;20196;-43
2021/03/15 00:42:07;;;;;;;3.57;3.23;;;10.50;59.50;;;;;;5068788;28;20708;-43
2021/03/15 00:44:34;;;;;;;5.97;3.53;;;10.50;59.50;;;;;;5063069;28;20188;-43
2021/03/15 00:47:00;;;;;;;4.20;3.23;;;10.40;59.30;;;;;;5067216;28;20666;-43
2021/03/15 00:49:25;;;;;;;5.47;4.10;;;10.40;59.40;;;;;;5070043;28;20445;-43
2021/03/15 00:51:51;;;;;;;3.80;2.80;;;10.50;59.50;;;;;;5068979;28;20691;-44
2021/03/15 00:54:17;;;;;;;3.53;3.10;;;10.40;59.00;;;;;;5068873;28;20674;-43
2021/03/15 00:56:43;;;;;;;6.17;3.63;;;10.50;59.00;;;;;;5066382;28;20665;-43
2021/03/15 00:59:08;;;;;;;4.03;3.47;;;10.50;58.90;;;;;;5070302;28;20430;-43
2021/03/15 01:01:34;;;;;;;6.53;3.60;;;10.40;58.80;;;;;;5061692;28;20194;-43
2021/03/15 01:03:59;;;;;;;5.93;3.70;;;10.40;58.70;;;;;;5065874;28;21269;-43
2021/03/15 01:06:25;;;;;;;5.10;4.00;;;10.40;58.90;;;;;;5066751;28;20228;-43
2021/03/15 01:08:51;;;;;;;7.63;3.90;;;10.40;59.10;;;;;;5064618;28;20318;-43
2021/03/15 01:11:16;;;;;;;4.07;3.63;;;10.50;59.30;;;;;;5068663;28;20194;-43
2021/03/15 01:13:42;;;;;;;6.27;3.53;;;10.40;59.20;;;;;;5068239;28;20203;-43
2021/03/15 01:16:08;;;;;;;7.57;4.13;;;10.40;59.20;;;;;;5068037;28;20710;-43
2021/03/15 01:18:35;;;;;;;4.63;3.50;;;10.50;59.20;;;;;;5066788;28;20306;-43
2021/03/15 01:21:00;;;;;;;5.13;4.00;;;10.30;59.00;;;;;;5067398;28;20450;-43
2021/03/15 01:23:26;;;;;;;5.90;3.77;;;10.30;59.30;;;;;;5060005;28;20429;-43
2021/03/15 01:25:52;;;;;;;5.70;4.43;;;10.30;59.30;;;;;;5067850;28;20207;-43
2021/03/15 01:28:19;;;;;;;7.10;4.40;;;10.40;59.30;;;;;;5063900;28;20233;-43
2021/03/15 01:30:46;;;;;;;6.07;4.20;;;10.40;59.20;;;;;;5066839;28;20760;-44
2021/03/15 01:33:13;;;;;;;4.70;3.37;;;10.40;59.00;;;;;;5065854;28;20946;-43
2021/03/15 01:35:39;;;;;;;4.33;3.97;;;10.50;59.00;;;;;;5067299;28;20858;-43
2021/03/15 01:38:08;;;;;;;4.70;3.60;;;10.40;58.60;;;;;;5065295;28;20445;-43
2021/03/15 01:40:35;;;;;;;4.17;3.20;;;10.40;58.70;;;;;;5067867;28;20438;-43
2021/03/15 01:43:01;;;;;;;5.23;3.20;;;10.40;58.70;;;;;;5068812;28;20587;-43
2021/03/15 01:45:27;;;;;;;6.00;4.33;;;10.50;58.70;;;;;;5068664;28;20983;-43
2021/03/15 01:47:52;;;;;;;3.47;2.73;;;10.40;58.50;;;;;;5068099;28;20569;-43
2021/03/15 01:50:19;;;;;;;2.73;2.53;;;10.40;58.30;;;;;;5060177;28;20219;-43
2021/03/15 01:52:47;;;;;;;4.20;2.60;;;10.20;57.70;;;;;;5071931;28;20913;-43
2021/03/15 01:55:15;;;;;;;3.20;2.90;;;10.10;57.70;;;;;;5072524;28;20453;-43
2021/03/15 01:57:41;;;;;;;4.10;3.20;;;10.20;57.80;;;;;;5071957;28;20502;-43
2021/03/15 02:00:09;;;;;;;3.83;3.50;;;10.30;57.60;;;;;;5073424;28;20509;-43
2021/03/15 02:02:37;;;;;;;9.30;3.03;;;10.30;57.50;;;;;;5070795;28;20208;-43
2021/03/15 02:05:04;;;;;;;3.20;2.93;;;10.30;57.30;;;;;;5068073;28;20577;-43
2021/03/15 02:07:30;;;;;;;4.70;2.53;;;10.30;57.10;;;;;;5068401;28;20981;-43
2021/03/15 02:09:55;;;;;;;3.60;2.80;;;10.30;57.20;;;;;;5066417;28;20444;-43
2021/03/15 02:12:54;;;;;;;3.00;2.60;;;10.30;57.20;;;;;;5066500;28;21437;-43
2021/03/15 02:15:38;;;;;;;3.80;2.73;;;10.30;57.00;;;;;;5062804;28;20184;-43
2021/03/15 02:18:13;;;;;;;4.03;2.67;;;10.20;56.80;;;;;;5066883;28;20450;-43
2021/03/15 02:21:09;;;;;;;3.00;2.73;;;10.20;56.90;;;;;;5068795;28;20454;-43
2021/03/15 02:23:50;;;;;;;5.50;2.70;;;10.20;56.90;;;;;;5068900;28;20587;-43
2021/03/15 02:26:23;;;;;;;4.50;3.10;;;10.10;56.70;;;;;;5070561;28;20571;-43
2021/03/15 02:29:13;;;;;;;4.23;2.80;;;10.10;56.70;;;;;;5070473;28;20453;-43
2021/03/15 02:31:38;;;;;;;3.50;2.90;;;10.10;56.80;;;;;;5068068;28;20477;-43
2021/03/15 02:34:41;;;;;;;3.43;3.00;;;10.10;57.10;;;;;;5071927;28;20450;-43
2021/03/15 02:37:10;;;;;;;3.80;2.87;;;10.00;57.20;;;;;;5063001;28;20775;-43
2021/03/15 02:39:40;;;;;;;4.00;3.40;;;9.90;58.10;;;;;;5068215;28;20460;-43
2021/03/15 02:42:13;;;;;;;3.70;3.10;;;9.90;58.30;;;;;;5066651;28;20552;-43
2021/03/15 02:44:39;;;;;;;2.93;2.60;;;9.80;58.40;;;;;;5067908;28;20454;-44
2021/03/15 02:47:12;;;;;;;6.60;3.53;;;9.80;58.30;;;;;;5066165;28;21012;-43
2021/03/15 02:49:41;;;;;;;3.97;3.67;;;9.80;58.30;;;;;;5069773;28;20521;-43
2021/03/15 02:52:09;;;;;;;4.30;3.20;;;9.70;58.30;;;;;;5072015;28;20603;-43
2021/03/15 02:54:35;;;;;;;4.33;3.90;;;9.70;58.40;;;;;;5067764;28;20465;-43
2021/03/15 02:57:02;;;;;;;3.77;3.47;;;9.60;58.20;;;;;;5069372;28;20437;-43
2021/03/15 02:59:29;;;;;;;3.60;3.20;;;9.50;58.20;;;;;;5065850;28;20445;-43
2021/03/15 03:01:57;;;;;;;5.57;3.37;;;9.20;58.30;;;;;;5070166;28;20430;-43
2021/03/15 03:04:23;;;;;;;4.00;3.40;;;9.20;58.70;;;;;;5062992;28;20995;-44
2021/03/15 03:06:51;;;;;;;3.60;3.30;;;9.30;58.80;;;;;;5064560;28;20504;-43
2021/03/15 03:09:17;;;;;;;3.93;3.13;;;9.30;58.50;;;;;;5069096;28;20445;-43
2021/03/15 03:11:45;;;;;;;4.03;3.17;;;9.30;58.40;;;;;;5068475;28;21968;-43
2021/03/15 03:14:12;;;;;;;4.17;2.90;;;9.40;58.30;;;;;;5067301;28;20446;-43
2021/03/15 03:16:40;;;;;;;5.70;3.17;;;9.40;58.20;;;;;;5067542;28;20482;-43
2021/03/15 03:19:08;;;;;;;3.33;3.03;;;9.30;58.10;;;;;;5071477;28;20549;-43
2021/03/15 03:21:36;;;;;;;3.73;3.43;;;9.30;58.20;;;;;;5058074;28;20532;-43
2021/03/15 03:24:03;;;;;;;3.40;2.60;;;9.30;58.80;;;;;;5070921;28;20529;-43
2021/03/15 03:26:30;;;;;;;3.20;2.90;;;9.20;58.10;;;;;;5060629;28;20474;-43
2021/03/15 03:28:57;;;;;;;7.80;3.50;;;9.20;58.20;;;;;;5067660;28;20454;-43
2021/03/15 03:31:25;;;;;;;5.43;3.37;;;9.10;58.10;;;;;;5068998;28;20512;-43
2021/03/15 03:33:51;;;;;;;4.63;3.13;;;9.10;58.30;;;;;;5062925;28;20451;-43
2021/03/15 03:36:17;;;;;;;5.40;3.30;;;8.90;58.30;;;;;;5065779;28;20452;-43
2021/03/15 03:38:44;;;;;;;4.30;3.90;;;8.70;58.80;;;;;;5066584;28;20492;-43
2021/03/15 03:41:10;;;;;;;3.13;2.83;;;8.50;59.60;;;;;;5064710;28;20447;-43
2021/03/15 03:43:36;;;;;;;5.00;3.90;;;8.00;60.80;;;;;;5062359;28;20446;-43
2021/03/15 03:46:03;;;;;;;5.00;3.50;;;7.60;62.20;;;;;;5068788;28;20450;-43
2021/03/15 03:48:29;;;;;;;3.57;2.90;;;7.60;63.10;;;;;;5068720;28;20422;-43
2021/03/15 03:50:55;;;;;;;7.63;2.87;;;7.70;63.00;;;;;;5066645;28;20506;-43
2021/03/15 03:53:27;;;;;;;5.80;3.17;;;7.60;63.80;;;;;;5070770;28;20488;-43
2021/03/15 03:56:10;;;;;;;3.20;2.90;;;7.80;62.80;;;;;;5065975;28;20316;-43
2021/03/15 03:58:46;;;;;;;3.93;3.10;;;7.90;62.40;;;;;;5063214;28;20510;-43
2021/03/15 04:01:13;;;;;;;9.50;3.17;;;7.80;62.40;;;;;;5065950;28;20935;-43
2021/03/15 04:03:43;;;;;;;4.10;3.40;;;8.00;62.20;;;;;;5065874;28;20449;-43
2021/03/15 04:06:11;;;;;;;4.20;2.87;;;8.20;61.70;;;;;;5069172;28;20496;-43
2021/03/15 04:08:55;;;;;;;5.70;2.83;;;8.30;61.70;;;;;;5061774;28;20442;-43
2021/03/15 04:11:25;;;;;;;4.80;3.33;;;8.40;61.30;;;;;;5067446;28;20941;-43
2021/03/15 04:13:53;;;;;;;3.90;3.47;;;8.30;61.00;;;;;;5065738;28;20454;-43
2021/03/15 04:16:24;;;;;;;4.30;2.60;;;8.60;60.90;;;;;;5066547;28;20456;-43
2021/03/15 04:18:53;;;;;;;7.47;2.80;;;8.70;60.20;;;;;;5063356;28;20439;-43
2021/03/15 04:21:23;;;;;;;4.73;3.00;;;8.80;59.90;;;;;;5067214;28;20874;-43
2021/03/15 04:23:50;;;;;;;3.33;2.80;;;8.80;59.80;;;;;;5068941;28;20454;-43
2021/03/15 04:26:17;;;;;;;7.03;2.90;;;8.80;59.80;;;;;;5067237;28;20482;-43
2021/03/15 04:28:44;;;;;;;6.90;3.20;;;8.80;59.90;;;;;;5068780;28;20457;-43
2021/03/15 04:31:10;;;;;;;5.63;3.00;;;8.90;60.10;;;;;;5067456;28;20890;-43
2021/03/15 04:33:39;;;;;;;3.10;2.20;;;8.80;60.30;;;;;;5059858;28;20784;-43
2021/03/15 04:36:06;;;;;;;4.30;2.53;;;8.80;60.80;;;;;;5064572;28;21320;-44
2021/03/15 04:38:33;;;;;;;2.80;2.60;;;8.80;60.90;;;;;;5067442;28;20442;-43
2021/03/15 04:41:00;;;;;;;2.97;2.20;;;8.90;61.60;;;;;;5065570;28;20512;-43
2021/03/15 04:43:26;;;;;;;4.77;2.57;;;9.00;60.80;;;;;;5069271;28;20435;-43
2021/03/15 04:45:52;;;;;;;3.53;2.40;;;9.00;60.60;;;;;;5069037;28;20443;-43
2021/03/15 04:48:19;;;;;;;5.30;2.70;;;9.10;60.50;;;;;;5067353;28;20442;-43
2021/03/15 04:50:48;;;;;;;3.10;2.60;;;9.10;60.30;;;;;;5068359;28;20460;-43
2021/03/15 04:53:15;;;;;;;2.60;2.40;;;8.90;60.70;;;;;;5065904;28;20834;-43
2021/03/15 04:55:42;;;;;;;4.17;2.73;;;9.00;61.00;;;;;;5068255;28;20446;-43
2021/03/15 04:58:10;;;;;;;3.60;2.63;;;9.00;60.70;;;;;;5069624;28;20441;-43
2021/03/15 05:00:38;;;;;;;2.43;2.23;;;9.00;60.80;;;;;;5070037;28;20442;-43
2021/03/15 05:03:10;;;;;;;3.00;2.70;;;9.00;60.90;;;;;;5066385;28;20450;-43
2021/03/15 05:05:38;;;;;;;3.90;3.03;;;9.00;60.70;;;;;;5066658;28;20446;-43
2021/03/15 05:08:07;;;;;;;2.80;2.60;;;8.80;61.00;;;;;;5066735;28;21170;-43
2021/03/15 05:10:34;;;;;;;3.40;2.57;;;8.80;61.30;;;;;;5066133;28;20537;-43
2021/03/15 05:13:00;;;;;;;5.10;3.27;;;8.90;61.40;;;;;;5060321;28;20519;-43
2021/03/15 05:15:27;;;;;;;3.40;2.70;;;9.00;61.60;;;;;;5067296;28;20446;-43
2021/03/15 05:17:54;;;;;;;7.57;3.80;;;8.90;61.70;;;;;;5068868;28;20791;-43
2021/03/15 05:20:20;;;;;;;6.83;2.67;;;8.90;61.70;;;;;;5066987;28;20478;-43
2021/03/15 05:22:46;;;;;;;4.47;2.33;;;8.90;61.90;;;;;;5068245;28;20440;-43
2021/03/15 05:25:13;;;;;;;3.93;2.10;;;8.90;61.90;;;;;;5069693;28;20456;-43
2021/03/15 05:27:41;;;;;;;4.60;2.60;;;8.90;61.80;;;;;;5071647;28;20489;-43
2021/03/15 05:30:09;;;;;;;3.10;2.40;;;8.90;62.20;;;;;;5064392;28;20418;-43
2021/03/15 05:32:37;;;;;;;4.67;2.67;;;8.90;62.20;;;;;;5069705;28;20469;-43
2021/03/15 05:35:05;;;;;;;7.40;2.60;;;8.70;62.90;;;;;;5066615;28;20530;-43
2021/03/15 05:37:31;;;;;;;4.80;2.70;;;8.50;62.50;;;;;;5066747;28;20438;-43
2021/03/15 05:39:57;;;;;;;10.70;3.53;;;8.20;64.00;;;;;;5067281;28;20491;-43
2021/03/15 05:42:29;;;;;;;8.00;2.70;;;8.10;65.20;;;;;;5069535;28;20473;-43
2021/03/15 05:45:41;;;;;;;2.40;1.93;;;8.10;65.00;;;;;;5065635;28;20402;-43
2021/03/15 05:48:25;;;;;;;2.90;2.60;;;8.10;65.00;;;;;;5060135;28;20501;-43
2021/03/15 05:50:55;;;;;;;3.43;2.03;;;8.30;65.20;;;;;;5066881;28;20446;-43
2021/03/15 05:53:39;;;;;;;3.97;2.80;;;8.40;64.70;;;;;;5069450;28;20445;-43
2021/03/15 05:56:22;;;;;;;5.13;2.37;;;8.60;64.10;;;;;;5067049;28;21254;-43
2021/03/15 05:59:16;;;;;;;2.93;2.27;;;8.60;63.60;;;;;;5051678;28;20453;-43
2021/03/15 06:02:09;;;;;;;2.80;2.50;;;8.60;63.50;;;;;;5068051;28;20453;-43
2021/03/15 06:05:03;;;;;;;6.43;3.00;;;8.70;63.40;;;;;;5068156;28;20532;-43
2021/03/15 06:07:32;;;;;;;6.37;2.63;;;8.70;63.40;;;;;;5071546;28;20568;-43
2021/03/15 06:10:03;;;;;;;2.83;1.90;;;8.70;63.50;;;;;;5069835;28;20531;-43
2021/03/15 06:12:51;;;;;;;9.03;2.77;;;8.80;63.60;;;;;;5069804;28;20438;-43
2021/03/15 06:15:35;;;;;;;3.23;2.93;;;8.80;63.30;;;;;;5064002;28;20973;-43
2021/03/15 06:18:06;;;;;;;3.00;2.80;;;8.80;63.70;;;;;;5064767;28;20484;-43
2021/03/15 06:20:33;;;;;;;6.13;2.83;;;8.70;63.50;;;;;;5071375;28;20438;-43
2021/03/15 06:22:59;;;;;;;3.97;2.87;;;8.80;63.70;;;;;;5068420;28;20940;-43
2021/03/15 06:25:28;;;;;;;4.80;2.47;;;8.80;63.90;;;;;;5070434;28;20442;-43
2021/03/15 06:27:55;;;;;;;2.77;2.30;;;8.80;63.80;;;;;;5070310;28;20892;-43
2021/03/15 06:30:22;;;;;;;3.60;2.27;;;8.90;63.60;;;;;;5063477;28;20449;-43
2021/03/15 06:32:56;;;;;;;3.40;2.60;;;8.70;63.20;;;;;;5062515;28;20495;-43
2021/03/15 06:35:25;;;;;;;3.80;2.70;;;8.80;63.50;;;;;;5066716;28;20576;-43
2021/03/15 06:37:51;;;;;;;2.67;2.40;;;8.80;63.70;;;;;;5068232;28;20495;-43
2021/03/15 06:40:18;;;;;;;3.50;2.60;;;8.70;63.90;;;;;;5066251;28;20509;-43
2021/03/15 06:42:45;;;;;;;3.37;2.93;;;8.60;64.00;;;;;;5068092;28;20191;-43
2021/03/15 06:45:15;;;;;;;2.93;2.70;;;8.60;64.50;;;;;;5067479;28;20933;-43
2021/03/15 06:47:42;;;;;;;7.17;3.40;;;8.70;64.30;;;;;;5068904;28;20625;-43
2021/03/15 06:50:13;;;;;;;2.57;2.03;;;8.80;64.30;;;;;;5068644;28;20441;-43
2021/03/15 06:52:51;;;;;;;5.67;2.77;;;8.90;64.10;;;;;;5061717;28;20527;-43
2021/03/15 06:55:18;;;;;;;6.60;2.77;;;9.00;63.80;;;;;;5066772;28;20867;-43
2021/03/15 06:57:43;;;;;;;4.10;2.50;;;8.80;63.80;;;;;;5069501;28;20449;-43
2021/03/15 07:00:09;;;;;;;3.27;2.87;;;8.90;64.10;;;;;;5065688;28;20929;-43
2021/03/15 07:02:35;;;;;;;2.80;1.87;;;9.00;63.80;;;;;;5069677;28;20663;-43
2021/03/15 07:05:12;;;;;;;2.80;1.80;;;9.00;63.80;;;;;;5061228;28;20502;-43
2021/03/15 07:07:39;;;;;;;2.73;2.20;;;9.00;63.60;;;;;;5066439;28;20686;-43
2021/03/15 07:10:20;;;;;;;3.67;2.00;;;9.10;63.20;;;;;;5069688;28;20450;-43
2021/03/15 07:12:47;;;;;;;3.60;2.10;;;9.30;62.90;;;;;;5068199;28;20446;-44
2021/03/15 07:15:13;;;;;;;2.93;2.43;;;9.10;62.70;;;;;;5068996;28;20464;-43
2021/03/15 07:17:39;;;;;;;2.47;2.13;;;8.90;63.30;;;;;;5070795;28;21138;-43
2021/03/15 07:20:06;;;;;;;2.17;1.97;;;8.90;63.70;;;;;;5070596;28;20487;-43
2021/03/15 07:22:32;;;;;;;2.90;2.10;;;8.90;63.40;;;;;;5067145;28;20215;-43
2021/03/15 07:25:03;;;;;;;4.37;2.20;;;9.10;63.30;;;;;;5062018;28;20454;-44
2021/03/15 07:27:30;;;;;;;1.87;1.77;;;9.20;62.90;;;;;;5067080;28;20266;-43
2021/03/15 07:29:56;;;;;;;2.90;2.27;;;9.20;62.80;;;;;;5070465;28;20410;-43
2021/03/15 07:32:40;;;;;;;1.73;1.63;;;9.20;62.50;;;;;;5050399;28;578391;-43
2021/03/15 07:35:27;;;;;;;1.70;1.60;;;9.30;62.80;;;;;;5070604;28;20619;-43
2021/03/15 07:37:53;;;;;;;2.70;1.70;;;9.20;62.50;;;;;;5067942;28;20464;-43
2021/03/15 07:40:32;;;;;;;1.83;1.70;;;9.30;62.90;;;;;;5060114;28;20441;-43
2021/03/15 07:43:03;;;;;;;2.37;1.60;;;9.20;62.40;;;;;;5047733;28;20485;-43
2021/03/15 07:45:34;;;;;;;3.57;1.90;;;9.30;62.80;;;;;;5070601;28;20484;-43
2021/03/15 07:48:13;;;;;;;1.47;1.37;;;9.10;62.60;;;;;;5062427;28;20486;-43
2021/03/15 07:50:40;;;;;;;2.80;1.60;;;8.60;63.30;;;;;;5071228;28;20473;-43
2021/03/15 07:53:07;;;;;;;2.50;1.30;;;8.20;65.50;;;;;;5071017;28;20975;-43
2021/03/15 07:55:40;;;;;;;3.77;1.20;;;8.30;66.20;;;;;;5068562;28;20451;-43
2021/03/15 07:58:34;;;;;;;3.97;1.73;;;7.80;65.00;;;;;;5071833;28;20871;-43
2021/03/15 08:01:01;;;;;;;1.67;1.57;;;7.60;66.00;;;;;;5071613;28;20457;-43
2021/03/15 08:03:27;;;;;;;1.90;1.17;;;7.90;66.30;;;;;;5058449;28;20454;-42
2021/03/15 08:05:55;;;;;;;1.10;1.00;;;8.00;65.80;;;;;;5064515;28;20453;-43
2021/03/15 08:08:22;;;;;;;1.73;1.17;;;8.20;65.90;;;;;;5071161;28;20482;-43
2021/03/15 08:10:47;;;;;;;1.83;1.40;;;8.30;65.60;;;;;;5070531;28;20446;-43
2021/03/15 08:13:16;;;;;;;2.13;1.17;;;8.60;65.10;;;;;;5060003;28;20423;-43
2021/03/15 08:15:48;;;;;;;1.50;1.40;;;8.90;64.40;;;;;;5067707;28;20198;-43
2021/03/15 08:18:19;;;;;;;1.53;1.43;;;9.10;64.10;;;;;;5071224;28;20450;-43
2021/03/15 08:20:47;;;;;;;1.83;1.50;;;9.10;63.70;;;;;;5070414;28;20488;-43
2021/03/15 08:23:15;;;;;;;1.30;1.20;;;9.10;63.60;;;;;;5071883;28;20430;-43
2021/03/15 08:25:48;;;;;;;2.13;1.30;;;9.20;63.50;;;;;;5069064;28;20948;-43
2021/03/15 08:28:15;;;;;;;1.43;0.90;;;9.10;63.40;;;;;;5068702;28;20486;-43
2021/03/15 08:30:50;;;;;;;1.63;1.17;;;9.00;63.50;;;;;;5065021;28;20463;-43
2021/03/15 08:33:18;;;;;;;2.60;2.07;;;9.10;63.40;;;;;;5066487;28;20445;-43
2021/03/15 08:35:45;;;;;;;5.07;4.57;;;9.30;63.60;;;;;;5051864;28;20885;-43
2021/03/15 08:38:14;;;;;;;1.70;1.40;;;9.50;63.30;;;;;;5057403;28;20442;-43
2021/03/15 08:40:47;;;;;;;2.10;0.97;;;9.40;63.30;;;;;;5071157;28;20423;-43
2021/03/15 08:43:18;;;;;;;1.73;1.10;;;9.50;63.00;;;;;;5068281;28;20446;-43
2021/03/15 08:45:51;;;;;;;17.43;11.73;;;9.60;62.70;;;;;;5069979;28;20449;-43
2021/03/15 08:48:17;;;;;;;3.00;2.50;;;9.70;62.70;;;;;;5069214;28;22159;-43
2021/03/15 08:50:50;;;;;;;12.93;6.90;;;9.80;62.90;;;;;;5060320;28;20863;-43
2021/03/15 08:53:49;;;;;;;5.23;4.67;;;9.70;63.40;;;;;;5070472;28;20492;-43
2021/03/15 08:56:35;;;;;;;2.57;2.37;;;9.70;63.90;;;;;;5051968;28;20548;-43
2021/03/15 08:59:03;;;;;;;2.50;2.30;;;9.70;63.20;;;;;;5068535;28;20488;-43
2021/03/15 09:01:50;;;;;;;2.17;1.40;;;9.60;63.40;;;;;;5063954;28;20453;-44
2021/03/15 09:04:31;;;;;;;14.60;10.60;;;9.60;64.00;;;;;;5064145;28;20492;-43
2021/03/15 09:06:56;;;;;;;2.57;2.37;;;9.70;64.50;;;;;;5064891;28;20489;-43
2021/03/15 09:09:22;;;;;;;5.43;4.50;;;9.70;64.50;;;;;;5056905;28;20451;-43
2021/03/15 09:11:52;;;;;;;2.20;2.07;;;9.80;64.30;;;;;;5067427;28;20647;-43
2021/03/15 09:14:20;;;;;;;2.80;1.47;;;9.70;64.50;;;;;;5067512;28;20195;-43
2021/03/15 09:17:13;;;;;;;1.60;1.40;;;9.80;64.90;;;;;;5067475;28;20494;-43
2021/03/15 09:19:39;;;;;;;2.73;1.20;;;9.90;64.80;;;;;;5058556;28;20443;-43
2021/03/15 09:22:19;;;;;;;3.03;1.30;;;9.80;65.00;;;;;;5062671;28;20500;-43
2021/03/15 09:24:47;;;;;;;1.73;1.63;;;9.90;65.00;;;;;;5061765;28;20204;-43
2021/03/15 09:27:27;;;;;;;3.00;1.40;;;9.90;65.10;;;;;;5063074;28;20494;-43
2021/03/15 09:30:00;;;;;;;1.70;1.60;;;10.00;63.90;;;;;;5067520;28;20817;-43
2021/03/15 09:32:30;;;;;;;2.10;1.00;;;9.90;65.10;;;;;;5063006;28;20470;-43
2021/03/15 09:34:58;;;;;;;1.50;1.40;;;9.70;65.10;;;;;;5064757;28;20961;-43
2021/03/15 09:37:26;;;;;;;1.03;0.93;;;9.60;66.10;;;;;;5062683;28;20488;-43
2021/03/15 09:39:56;;;;;;;1.23;1.00;;;9.50;66.50;;;;;;5068389;28;20503;-43
2021/03/15 09:42:22;;;;;;;4.50;1.20;;;9.50;67.00;;;;;;5065922;28;20459;-43
2021/03/15 09:44:47;;;;;;;1.30;1.07;;;9.60;67.40;;;;;;5063108;28;20481;-43
2021/03/15 09:47:24;;;;;;;1.17;1.07;;;9.60;67.40;;;;;;5062737;28;20228;-43
2021/03/15 09:49:50;;;;;;;1.17;1.07;;;9.50;67.90;;;;;;5067910;28;20184;-43
2021/03/15 09:52:23;;;;;;;1.80;1.27;;;9.60;68.00;;;;;;5068227;28;20938;-43
2021/03/15 09:54:53;;;;;;;1.67;1.13;;;9.50;68.00;;;;;;5065202;28;20188;-43
2021/03/15 09:57:20;;;;;;;1.63;1.27;;;9.60;68.10;;;;;;5069465;28;21014;-43
2021/03/15 09:59:47;;;;;;;1.93;1.10;;;9.60;67.80;;;;;;5067597;28;20445;-43
2021/03/15 10:02:27;;;;;;;1.50;1.40;;;9.60;67.90;;;;;;5059183;28;21164;-43
2021/03/15 10:04:52;;;;;;;1.80;1.63;;;9.70;68.20;;;;;;5059950;28;20465;-43
2021/03/15 10:07:18;;;;;;;1.70;1.60;;;9.60;68.10;;;;;;5068673;28;20988;-43
2021/03/15 10:09:44;;;;;;;1.73;1.37;;;9.80;68.10;;;;;;5069243;28;20658;-43
2021/03/15 10:12:30;;;;;;;3.10;1.60;;;9.80;67.90;;;;;;5070018;28;20268;-43
2021/03/15 10:15:10;;;;;;;1.90;1.80;;;9.90;67.70;;;;;;5070943;28;20192;-43
2021/03/15 10:17:36;;;;;;;1.97;1.50;;;10.10;66.50;;;;;;5068632;28;20460;-43
2021/03/15 10:20:05;;;;;;;2.37;1.50;;;10.30;66.30;;;;;;5061079;28;20443;-43
2021/03/15 10:22:30;;;;;;;2.00;1.90;;;10.30;66.20;;;;;;5067590;28;20449;-43
2021/03/15 10:24:56;;;;;;;3.43;1.93;;;10.30;65.90;;;;;;5067172;28;20438;-43
2021/03/15 10:27:24;;;;;;;5.00;1.80;;;10.30;65.90;;;;;;5066814;28;20610;-43
2021/03/15 10:29:57;;;;;;;1.70;1.60;;;10.30;66.10;;;;;;5067146;28;20254;-43
2021/03/15 10:32:29;;;;;;;3.50;1.67;;;10.10;66.40;;;;;;5058389;28;20482;-43
2021/03/15 10:35:04;;;;;;;1.50;1.40;;;9.90;68.20;;;;;;5062128;28;20451;-43
2021/03/15 10:37:36;;;;;;;1.90;1.80;;;9.70;68.50;;;;;;5065094;28;20495;-43
2021/03/15 10:40:04;;;;;;;2.03;1.60;;;9.60;69.20;;;;;;5062378;28;20461;-43
2021/03/15 10:42:30;;;;;;;1.87;1.77;;;9.70;69.70;;;;;;5068263;28;20525;-43
2021/03/15 10:44:57;;;;;;;1.70;1.50;;;9.70;69.40;;;;;;5061896;28;20453;-43
2021/03/15 10:47:28;;;;;;;2.87;2.10;;;9.50;69.00;;;;;;5065463;28;20486;-44
2021/03/15 10:49:53;;;;;;;2.40;2.20;;;9.60;70.30;;;;;;5063840;28;20441;-44
2021/03/15 10:52:27;;;;;;;1.93;1.73;;;9.70;70.20;;;;;;5064975;28;20438;-43
2021/03/15 10:54:53;;;;;;;1.77;1.67;;;9.60;70.30;;;;;;5067180;28;20188;-43
2021/03/15 10:57:21;;;;;;;2.00;1.90;;;9.60;70.30;;;;;;5071564;28;20476;-42
2021/03/15 10:59:49;;;;;;;1.87;1.73;;;9.60;69.70;;;;;;5071044;28;20680;-42
2021/03/15 11:02:25;;;;;;;3.57;2.07;;;9.60;69.80;;;;;;5065256;28;20499;-43
2021/03/15 11:04:59;;;;;;;1.83;1.70;;;9.50;69.80;;;;;;5063586;28;20431;-43
2021/03/15 11:07:36;;;;;;;2.37;2.17;;;10.00;68.30;;;;;;5069603;28;20608;-42
2021/03/15 11:10:04;;;;;;;3.70;2.20;;;10.10;67.20;;;;;;5065305;28;20774;-43
2021/03/15 11:12:31;;;;;;;3.43;2.37;;;10.10;67.20;;;;;;5069556;28;20442;-43
2021/03/15 11:15:08;;;;;;;2.13;1.93;;;9.90;68.50;;;;;;5071001;28;20521;-43
2021/03/15 11:17:34;;;;;;;2.20;1.67;;;9.80;68.90;;;;;;5066712;28;20445;-42
2021/03/15 11:20:00;;;;;;;3.03;2.20;;;9.90;68.80;;;;;;5070714;28;20434;-43
2021/03/15 11:22:25;;;;;;;1.90;1.80;;;9.90;68.70;;;;;;5072146;28;20426;-43
2021/03/15 11:25:08;;;;;;;2.17;2.00;;;10.10;67.60;;;;;;5069043;28;20196;-43
2021/03/15 11:27:34;;;;;;;2.47;2.10;;;9.80;68.30;;;;;;5067912;28;20288;-42
2021/03/15 11:30:00;;;;;;;2.60;2.40;;;9.70;69.20;;;;;;5068028;28;20493;-43
2021/03/15 11:32:26;;;;;;;2.03;1.83;;;9.60;69.30;;;;;;5072523;28;20481;-43
2021/03/15 11:34:52;;;;;;;2.53;2.13;;;9.60;69.50;;;;;;5070719;28;20230;-43
2021/03/15 11:37:29;;;;;;;2.00;1.90;;;9.60;68.90;;;;;;5068836;28;20445;-43
2021/03/15 11:39:55;;;;;;;2.03;1.93;;;9.50;69.10;;;;;;5068803;28;20441;-43
2021/03/15 11:42:30;;;;;;;2.20;2.03;;;9.40;68.50;;;;;;5071133;28;20829;-43
2021/03/15 11:44:56;;;;;;;1.73;1.63;;;9.50;68.80;;;;;;5069169;28;20442;-43
2021/03/15 11:47:21;;;;;;;2.00;1.90;;;9.40;68.60;;;;;;5070839;28;20848;-43
2021/03/15 11:49:47;;;;;;;2.23;2.03;;;9.50;69.20;;;;;;5070966;28;20195;-43
2021/03/15 11:52:23;;;;;;;2.53;2.33;;;9.50;68.50;;;;;;5071113;28;20258;-43
2021/03/15 11:54:48;;;;;;;2.33;2.13;;;9.50;68.80;;;;;;5064851;28;20192;-43
2021/03/15 11:57:14;;;;;;;1.87;1.77;;;9.60;68.60;;;;;;5069874;28;20431;-43
2021/03/15 11:59:39;;;;;;;3.27;2.97;;;9.70;69.20;;;;;;5070949;28;20195;-43
2021/03/15 12:02:05;;;;;;;2.43;2.30;;;9.80;68.80;;;;;;5071702;28;20192;-43
2021/03/15 12:04:31;;;;;;;2.70;2.50;;;9.80;68.60;;;;;;5071197;28;20647;-43
2021/03/15 12:06:56;;;;;;;2.30;2.10;;;10.00;67.10;;;;;;5070930;28;20223;-43
2021/03/15 12:09:22;;;;;;;2.47;2.27;;;9.90;68.30;;;;;;5069955;28;20206;-44
2021/03/15 12:11:47;;;;;;;2.17;2.00;;;9.90;68.30;;;;;;5070535;28;20192;-43
2021/03/15 12:14:13;;;;;;;2.27;2.10;;;10.00;66.40;;;;;;5071437;28;20271;-43
2021/03/15 12:16:38;;;;;;;1.73;1.63;;;10.10;66.20;;;;;;5070337;28;20227;-43
2021/03/15 12:19:04;;;;;;;2.13;2.00;;;10.20;66.20;;;;;;5070845;28;20192;-43
2021/03/15 12:21:30;;;;;;;2.00;1.90;;;10.40;66.80;;;;;;5070685;28;20195;-43
2021/03/15 12:23:55;;;;;;;1.73;1.63;;;10.60;65.60;;;;;;5068691;28;20195;-43
2021/03/15 12:26:21;;;;;;;1.67;1.57;;;10.60;64.10;;;;;;5070232;28;20274;-44
2021/03/15 12:28:46;;;;;;;1.57;1.50;;;10.70;63.90;;;;;;5070809;28;20196;-43
2021/03/15 12:31:12;;;;;;;1.70;1.60;;;10.80;63.10;;;;;;5069578;28;20227;-43
2021/03/15 12:33:38;;;;;;;2.40;1.97;;;10.80;61.60;;;;;;5069474;28;20198;-43
2021/03/15 12:36:04;;;;;;;1.80;1.70;;;11.10;63.10;;;;;;5066422;28;20188;-43
2021/03/15 12:38:29;;;;;;;1.37;1.27;;;11.10;61.40;;;;;;5066614;28;20280;-43
2021/03/15 12:40:55;;;;;;;1.57;1.47;;;11.00;60.70;;;;;;5067383;28;20873;-43
2021/03/15 12:43:21;;;;;;;1.40;1.30;;;11.00;60.50;;;;;;5072818;28;20530;-43
2021/03/15 12:45:46;;;;;;;1.30;1.20;;;11.00;60.50;;;;;;5069522;28;20187;-43
2021/03/15 12:48:12;;;;;;;1.50;1.40;;;11.20;60.60;;;;;;5064335;28;20280;-43
2021/03/15 12:50:37;;;;;;;1.30;1.20;;;11.20;58.80;;;;;;5068252;28;20187;-43
2021/03/15 12:53:03;;;;;;;1.50;1.40;;;11.00;58.70;;;;;;5054991;28;20241;-43
2021/03/15 12:55:28;;;;;;;1.60;1.50;;;11.10;59.20;;;;;;5068255;28;20246;-43
2021/03/15 12:57:54;;;;;;;1.27;1.17;;;11.30;59.50;;;;;;5058439;28;20200;-44
2021/03/15 13:00:20;;;;;;;1.50;1.33;;;11.40;58.80;;;;;;5064803;28;20211;-44
2021/03/15 13:02:45;;;;;;;1.40;1.30;;;11.50;58.20;;;;;;5064855;28;20695;-43
2021/03/15 13:05:12;;;;;;;1.83;1.70;;;11.50;58.20;;;;;;5064496;28;20230;-44